createdAt,value
2023-04-13T00:02:10.306Z,13.87
2023-04-13T00:04:37.146Z,13.72
2023-04-13T00:07:03.713Z,13.10
2023-04-13T00:09:33.318Z,12.92
2023-04-13T00:11:59.867Z,13.11
2023-04-13T00:14:27.702Z,12.71
2023-04-13T00:16:54.373Z,13.11
2023-04-13T00:19:20.919Z,12.04
2023-04-13T00:21:47.496Z,12.49
2023-04-13T00:24:14.748Z,12.97
2023-04-13T00:26:41.358Z,12.70
2023-04-13T00:29:08.164Z,12.45
2023-04-13T00:31:34.811Z,12.46
2023-04-13T00:34:01.957Z,12.82
2023-04-13T00:36:28.621Z,12.92
2023-04-13T00:38:57.296Z,12.81
2023-04-13T00:41:26.645Z,12.70
2023-04-13T00:43:53.637Z,12.34
2023-04-13T00:46:20.878Z,12.67
2023-04-13T00:48:48.230Z,12.80
2023-04-13T00:51:16.639Z,12.32
2023-04-13T00:53:44.066Z,12.48
2023-04-13T00:56:10.967Z,12.50
2023-04-13T00:58:37.937Z,12.47
2023-04-13T01:01:04.751Z,12.61
2023-04-13T01:03:33.398Z,12.51
2023-04-13T01:06:17.853Z,12.55
2023-04-13T01:08:57.899Z,12.71
2023-04-13T01:11:54.879Z,12.74
2023-04-13T01:14:32.214Z,12.77
2023-04-13T01:17:03.958Z,12.82
2023-04-13T01:19:56.638Z,12.90
2023-04-13T01:22:27.319Z,12.92
2023-04-13T01:25:31.650Z,12.95
2023-04-13T01:28:05.255Z,12.98
2023-04-13T01:30:36.016Z,12.81
2023-04-13T01:33:04.557Z,12.84
2023-04-13T01:35:32.656Z,12.93
2023-04-13T01:37:59.875Z,13.08
2023-04-13T01:40:30.689Z,13.11
2023-04-13T01:42:58.223Z,13.09
2023-04-13T01:46:01.218Z,13.13
2023-04-13T01:48:38.983Z,13.04
2023-04-13T01:51:32.320Z,12.97
2023-04-13T01:54:12.779Z,12.89
2023-04-13T01:56:41.185Z,12.93
2023-04-13T01:59:07.819Z,12.87
2023-04-13T02:01:40.804Z,12.97
2023-04-13T02:04:07.767Z,12.78
2023-04-13T02:06:34.864Z,12.71
2023-04-13T02:09:06.655Z,12.63
2023-04-13T02:11:37.961Z,12.60
2023-04-13T02:14:05.879Z,12.76
2023-04-13T02:16:33.150Z,12.79
2023-04-13T02:19:00.202Z,12.68
2023-04-13T02:21:26.887Z,12.77
2023-04-13T02:23:53.503Z,12.71
2023-04-13T02:26:22.203Z,12.74
2023-04-13T02:28:50.102Z,12.77
2023-04-13T02:31:19.547Z,12.60
2023-04-13T02:33:46.742Z,12.79
2023-04-13T02:36:13.448Z,12.88
2023-04-13T02:38:53.101Z,12.73
2023-04-13T02:41:27.061Z,12.69
2023-04-13T02:43:53.620Z,12.57
2023-04-13T02:46:23.636Z,12.52
2023-04-13T02:48:56.347Z,12.48
2023-04-13T02:51:23.704Z,12.69
2023-04-13T02:53:50.352Z,12.71
2023-04-13T02:56:16.963Z,12.67
2023-04-13T02:58:48.320Z,12.56
2023-04-13T03:01:17.920Z,12.83
2023-04-13T03:03:45.780Z,13.07
2023-04-13T03:06:12.415Z,12.90
2023-04-13T03:08:46.305Z,13.00
2023-04-13T03:11:18.538Z,13.01
2023-04-13T03:13:54.069Z,13.12
2023-04-13T03:16:21.112Z,13.15
2023-04-13T03:18:47.776Z,13.21
2023-04-13T03:21:14.742Z,13.17
2023-04-13T03:24:01.566Z,13.38
2023-04-13T03:26:28.165Z,13.22
2023-04-13T03:28:58.152Z,13.32
2023-04-13T03:31:26.351Z,13.24
2023-04-13T03:33:53.065Z,13.15
2023-04-13T03:36:20.677Z,13.20
2023-04-13T03:38:47.210Z,12.95
2023-04-13T03:41:15.624Z,12.91
2023-04-13T03:43:45.773Z,12.96
2023-04-13T03:46:13.261Z,12.57
2023-04-13T03:48:41.404Z,12.37
2023-04-13T03:51:09.040Z,12.51
2023-04-13T03:53:46.961Z,12.49
2023-04-13T03:56:13.730Z,12.55
2023-04-13T03:58:41.852Z,12.62
2023-04-13T04:01:10.108Z,12.12
2023-04-13T04:03:44.497Z,12.57
2023-04-13T04:06:11.804Z,12.45
2023-04-13T04:08:43.873Z,12.77
2023-04-13T04:11:22.477Z,12.65
2023-04-13T04:13:49.323Z,12.23
2023-04-13T04:16:16.544Z,12.43
2023-04-13T04:18:48.292Z,12.44
2023-04-13T04:21:21.625Z,12.31
2023-04-13T04:23:48.703Z,12.37
2023-04-13T04:26:17.820Z,12.41
2023-04-13T04:29:01.852Z,12.23
2023-04-13T04:31:36.128Z,12.45
2023-04-13T04:34:06.307Z,12.49
2023-04-13T04:36:36.303Z,12.49
2023-04-13T04:39:04.534Z,12.50
2023-04-13T04:41:37.850Z,12.15
2023-04-13T04:44:07.531Z,12.23
2023-04-13T04:46:38.693Z,12.11
2023-04-13T04:49:09.539Z,12.25
2023-04-13T04:51:36.763Z,12.51
2023-04-13T04:54:03.903Z,12.62
2023-04-13T04:56:30.774Z,12.52
2023-04-13T04:58:57.634Z,12.44
2023-04-13T05:01:34.910Z,12.12
2023-04-13T05:04:08.069Z,12.37
2023-04-13T05:06:41.039Z,12.26
2023-04-13T05:09:09.832Z,12.56
2023-04-13T05:11:39.171Z,12.50
2023-04-13T05:14:08.708Z,12.56
2023-04-13T05:16:36.022Z,12.43
2023-04-13T05:19:10.357Z,12.37
2023-04-13T05:21:51.999Z,12.34
2023-04-13T05:24:18.788Z,12.40
2023-04-13T05:26:45.978Z,12.55
2023-04-13T05:29:16.644Z,12.21
2023-04-13T05:31:44.909Z,12.33
2023-04-13T05:34:11.683Z,12.46
2023-04-13T05:36:39.563Z,12.49
2023-04-13T05:39:10.944Z,12.24
2023-04-13T05:41:37.739Z,12.54
2023-04-13T05:44:04.801Z,12.73
2023-04-13T05:46:33.096Z,12.81
2023-04-13T05:49:03.921Z,12.76
2023-04-13T05:51:32.839Z,12.60
2023-04-13T05:53:59.495Z,12.76
2023-04-13T05:56:26.432Z,12.69
2023-04-13T05:58:53.745Z,12.38
2023-04-13T06:01:25.029Z,12.75
2023-04-13T06:03:53.401Z,12.81
2023-04-13T06:06:21.103Z,12.92
2023-04-13T06:08:47.653Z,12.75
2023-04-13T06:11:16.888Z,13.15
2023-04-13T06:13:43.486Z,13.13
2023-04-13T06:16:10.461Z,13.10
2023-04-13T06:18:37.454Z,13.33
2023-04-13T06:21:04.290Z,13.23
2023-04-13T06:23:30.844Z,13.40
2023-04-13T06:26:00.090Z,13.19
2023-04-13T06:28:40.115Z,13.38
2023-04-13T06:31:07.385Z,13.21
2023-04-13T06:33:34.042Z,13.45
2023-04-13T06:36:00.796Z,13.05
2023-04-13T06:38:28.132Z,13.23
2023-04-13T06:41:03.381Z,13.48
2023-04-13T06:43:32.205Z,12.97
2023-04-13T06:46:19.580Z,13.19
2023-04-13T06:48:49.799Z,13.16
2023-04-13T06:51:20.266Z,13.76
2023-04-13T06:53:48.386Z,13.90
2023-04-13T06:56:18.423Z,13.64
2023-04-13T06:58:45.872Z,14.14
2023-04-13T07:01:12.618Z,14.23
2023-04-13T07:03:42.894Z,14.23
2023-04-13T07:06:09.952Z,14.10
2023-04-13T07:08:37.183Z,14.32
2023-04-13T07:11:03.867Z,14.47
2023-04-13T07:13:38.271Z,14.25
2023-04-13T07:16:12.437Z,14.11
2023-04-13T07:18:45.218Z,13.65
2023-04-13T07:21:12.076Z,13.82
2023-04-13T07:24:07.877Z,14.12
2023-04-13T07:26:39.822Z,14.29
2023-04-13T07:29:13.120Z,14.18
2023-04-13T07:31:44.994Z,14.85
2023-04-13T07:34:12.196Z,14.81
2023-04-13T07:36:43.187Z,15.16
2023-04-13T07:39:12.986Z,14.78
2023-04-13T07:41:46.272Z,14.70
2023-04-13T07:44:16.298Z,15.02
2023-04-13T07:46:43.621Z,14.96
2023-04-13T07:49:10.803Z,14.93
2023-04-13T07:51:38.638Z,14.83
2023-04-13T07:54:05.566Z,14.90
2023-04-13T07:56:36.103Z,15.40
2023-04-13T07:59:03.942Z,15.76
2023-04-13T08:01:31.845Z,15.05
2023-04-13T08:04:01.925Z,15.06
2023-04-13T08:06:28.918Z,14.88
2023-04-13T08:08:55.526Z,15.70
2023-04-13T08:11:23.787Z,15.37
2023-04-13T08:13:56.376Z,14.81
2023-04-13T08:16:23.310Z,14.86
2023-04-13T08:18:49.970Z,15.49
2023-04-13T08:21:18.951Z,15.86
2023-04-13T08:23:48.072Z,15.27
2023-04-13T08:26:19.577Z,14.23
2023-04-13T08:28:50.206Z,15.32
2023-04-13T08:31:17.159Z,13.99
2023-04-13T08:33:50.268Z,14.45
2023-04-13T08:36:17.470Z,15.44
2023-04-13T08:38:47.472Z,15.62
2023-04-13T08:41:16.827Z,16.22
2023-04-13T08:43:47.455Z,15.34
2023-04-13T08:46:19.615Z,14.82
2023-04-13T08:48:53.880Z,14.95
2023-04-13T08:51:45.857Z,16.49
2023-04-13T08:54:15.917Z,16.00
2023-04-13T08:56:46.935Z,15.99
2023-04-13T08:59:21.275Z,16.37
2023-04-13T09:01:50.019Z,16.28
2023-04-13T09:04:21.896Z,16.07
2023-04-13T09:06:53.562Z,15.68
2023-04-13T09:09:21.268Z,15.75
2023-04-13T09:11:50.872Z,15.74
2023-04-13T09:14:22.134Z,14.54
2023-04-13T09:16:49.837Z,15.59
2023-04-13T09:19:32.857Z,15.33
2023-04-13T09:22:12.870Z,15.30
2023-04-13T09:24:41.059Z,15.29
2023-04-13T09:27:20.558Z,15.50
2023-04-13T09:29:52.192Z,16.10
2023-04-13T09:32:26.889Z,16.03
2023-04-13T09:35:08.327Z,16.31
2023-04-13T09:37:36.861Z,16.22
2023-04-13T09:40:14.505Z,16.31
2023-04-13T09:42:53.200Z,17.04
2023-04-13T09:45:19.772Z,16.92
2023-04-13T09:47:47.743Z,16.59
2023-04-13T09:50:28.201Z,16.32
2023-04-13T09:53:04.952Z,17.34
2023-04-13T09:55:33.975Z,17.73
2023-04-13T09:58:14.675Z,16.88
2023-04-13T10:00:44.564Z,15.67
2023-04-13T10:03:13.288Z,16.92
2023-04-13T10:05:57.572Z,15.93
2023-04-13T10:11:01.633Z,17.11
2023-04-13T10:13:34.614Z,17.41
2023-04-13T10:16:21.735Z,17.46
2023-04-13T10:19:02.439Z,17.13
2023-04-13T10:21:39.540Z,17.44
2023-04-13T10:24:12.194Z,17.32
2023-04-13T10:26:40.504Z,17.71
2023-04-13T10:29:08.389Z,16.94
2023-04-13T10:31:46.471Z,17.29
2023-04-13T10:34:30.679Z,17.19
2023-04-13T10:37:04.272Z,17.51
2023-04-13T10:39:33.466Z,17.75
2023-04-13T10:42:03.776Z,17.70
2023-04-13T10:44:43.381Z,18.04
2023-04-13T10:47:11.151Z,17.92
2023-04-13T10:49:38.371Z,17.99
2023-04-13T10:52:05.009Z,17.66
2023-04-13T10:54:32.723Z,17.63
2023-04-13T10:57:02.592Z,17.17
2023-04-13T10:59:53.092Z,16.34
2023-04-13T11:02:32.449Z,15.95
2023-04-13T11:05:00.379Z,16.91
2023-04-13T11:07:27.096Z,17.08
2023-04-13T11:12:29.690Z,17.26
2023-04-13T11:14:56.330Z,16.62
2023-04-13T11:17:22.991Z,16.79
2023-04-13T11:19:51.489Z,15.53
2023-04-13T11:22:22.614Z,15.14
2023-04-13T11:24:50.868Z,15.59
2023-04-13T11:27:18.978Z,16.17
2023-04-13T11:29:45.680Z,16.64
2023-04-13T11:32:19.088Z,16.14
2023-04-13T11:34:47.035Z,16.32
2023-04-13T11:37:13.717Z,16.23
2023-04-13T11:39:42.626Z,16.00
2023-04-13T11:42:10.036Z,16.29
2023-04-13T11:44:37.766Z,15.78
2023-04-13T11:47:05.946Z,16.29
2023-04-13T11:49:33.042Z,15.98
2023-04-13T11:52:02.015Z,16.65
2023-04-13T11:54:30.226Z,17.07
2023-04-13T11:56:57.538Z,16.98
2023-04-13T11:59:25.487Z,16.83
2023-04-13T12:02:01.560Z,16.35
2023-04-13T12:04:40.957Z,16.03
2023-04-13T12:07:14.040Z,16.39
2023-04-13T12:09:56.222Z,16.67
2023-04-13T12:15:12.290Z,16.71
2023-04-13T12:17:49.646Z,16.42
2023-04-13T12:20:20.428Z,16.24
2023-04-13T12:22:57.601Z,16.40
2023-04-13T12:25:35.778Z,16.54
2023-04-13T12:28:03.408Z,15.91
2023-04-13T12:30:30.055Z,16.39
2023-04-13T12:32:56.781Z,16.35
2023-04-13T12:35:23.470Z,16.34
2023-04-13T12:37:50.462Z,16.28
2023-04-13T12:40:18.471Z,16.46
2023-04-13T12:42:46.562Z,16.67
2023-04-13T12:45:14.095Z,16.20
2023-04-13T12:47:41.530Z,16.40
2023-04-13T12:50:10.076Z,16.41
2023-04-13T12:52:38.344Z,16.42
2023-04-13T12:55:05.406Z,15.87
2023-04-13T12:57:32.588Z,16.36
2023-04-13T12:59:59.261Z,16.43
2023-04-13T13:02:28.045Z,15.83
2023-04-13T13:04:59.068Z,15.55
2023-04-13T13:07:26.182Z,15.00
2023-04-13T13:09:52.949Z,14.70
2023-04-13T13:12:19.505Z,14.29
2023-04-13T13:14:46.344Z,14.09
2023-04-13T13:17:13.006Z,14.16
2023-04-13T13:19:39.524Z,14.02
2023-04-13T13:22:06.065Z,14.24
2023-04-13T13:24:32.725Z,14.35
2023-04-13T13:29:33.073Z,14.59
2023-04-13T13:32:00.101Z,14.86
2023-04-13T13:34:26.813Z,14.98
2023-04-13T13:36:53.532Z,14.96
2023-04-13T13:39:22.353Z,15.31
2023-04-13T13:41:49.846Z,15.49
2023-04-13T13:44:16.936Z,15.64
2023-04-13T13:46:43.810Z,15.57
2023-04-13T13:49:11.822Z,15.58
2023-04-13T13:51:41.271Z,15.72
2023-04-13T13:54:10.732Z,15.69
2023-04-13T13:56:37.328Z,15.89
2023-04-13T13:59:03.885Z,15.89
2023-04-13T14:01:31.341Z,15.84
2023-04-13T14:03:59.216Z,15.72
2023-04-13T14:06:26.449Z,15.40
2023-04-13T14:08:53.312Z,15.46
2023-04-13T14:11:19.850Z,15.36
2023-04-13T14:13:53.674Z,15.48
2023-04-13T14:16:21.864Z,15.32
2023-04-13T14:18:49.154Z,15.29
2023-04-13T14:21:15.998Z,15.72
2023-04-13T14:23:42.599Z,16.14
2023-04-13T14:26:09.117Z,16.06
2023-04-13T14:28:36.728Z,16.28
2023-04-13T14:31:03.513Z,16.24
2023-04-13T14:33:30.169Z,16.35
2023-04-13T14:35:56.757Z,16.39
2023-04-13T14:38:23.695Z,16.41
2023-04-13T14:40:50.696Z,15.75
2023-04-13T14:43:17.453Z,15.69
2023-04-13T14:45:43.993Z,16.38
2023-04-13T14:48:10.569Z,16.51
2023-04-13T14:50:40.517Z,16.49
2023-04-13T14:53:07.697Z,16.28
2023-04-13T14:55:34.318Z,16.05
2023-04-13T14:58:01.692Z,16.25
2023-04-13T15:00:41.076Z,16.22
2023-04-13T15:03:09.726Z,16.68
2023-04-13T15:05:47.494Z,16.68
2023-04-13T15:08:16.606Z,16.36
2023-04-13T15:10:43.172Z,15.76
2023-04-13T15:13:09.843Z,15.73
2023-04-13T15:15:37.928Z,15.68
2023-04-13T15:18:06.015Z,16.04
2023-04-13T15:20:32.936Z,15.98
2023-04-13T15:22:59.530Z,15.82
2023-04-13T15:25:26.444Z,15.75
2023-04-13T15:27:54.589Z,16.06
2023-04-13T15:30:31.825Z,16.13
2023-04-13T15:33:02.215Z,16.26
2023-04-13T15:35:29.834Z,16.44
2023-04-13T15:37:56.507Z,16.38
2023-04-13T15:40:27.980Z,16.45
2023-04-13T15:42:54.556Z,16.16
2023-04-13T15:45:21.266Z,16.21
2023-04-13T15:47:47.857Z,16.32
2023-04-13T15:50:14.490Z,16.17
2023-04-13T15:52:41.127Z,16.20
2023-04-13T15:55:09.004Z,16.09
2023-04-13T15:57:37.068Z,15.93
2023-04-13T16:00:05.017Z,15.87
2023-04-13T16:02:32.149Z,15.77
2023-04-13T16:04:59.046Z,15.66
2023-04-13T16:07:25.770Z,15.56
2023-04-13T16:09:58.495Z,15.90
2023-04-13T16:12:32.146Z,15.31
2023-04-13T16:14:59.513Z,15.71
2023-04-13T16:17:32.513Z,15.55
2023-04-13T16:20:17.707Z,15.61
2023-04-13T16:22:49.112Z,15.77
2023-04-13T16:25:17.572Z,15.73
2023-04-13T16:27:45.304Z,15.67
2023-04-13T16:30:13.296Z,15.48
2023-04-13T16:32:44.733Z,15.36
2023-04-13T16:35:12.198Z,15.33
2023-04-13T16:37:41.051Z,15.33
2023-04-13T16:40:11.551Z,15.44
2023-04-13T16:42:41.404Z,14.81
2023-04-13T16:45:12.958Z,15.02
2023-04-13T16:47:42.250Z,14.76
2023-04-13T16:50:10.603Z,14.68
2023-04-13T16:52:38.911Z,14.91
2023-04-13T16:55:06.190Z,15.03
2023-04-13T16:57:33.226Z,14.79
2023-04-13T17:00:09.123Z,14.90
2023-04-13T17:02:40.433Z,14.41
2023-04-13T17:05:08.803Z,14.64
2023-04-13T17:07:36.862Z,14.40
2023-04-13T17:10:04.421Z,14.75
2023-04-13T17:12:31.337Z,14.79
2023-04-13T17:14:58.500Z,14.83
2023-04-13T17:17:25.266Z,14.70
2023-04-13T17:19:55.880Z,14.45
2023-04-13T17:22:23.380Z,14.48
2023-04-13T17:24:49.915Z,14.59
2023-04-13T17:27:16.520Z,14.61
2023-04-13T17:29:43.218Z,14.42
2023-04-13T17:32:09.853Z,14.62
2023-04-13T17:34:36.555Z,14.60
2023-04-13T17:37:03.998Z,14.69
2023-04-13T17:39:30.847Z,14.62
2023-04-13T17:41:57.444Z,14.69
2023-04-13T17:44:24.055Z,14.62
2023-04-13T17:46:51.557Z,14.56
2023-04-13T17:49:18.185Z,14.52
2023-04-13T17:51:47.976Z,14.58
2023-04-13T17:54:14.634Z,14.55
2023-04-13T17:56:41.253Z,14.58
2023-04-13T17:59:07.819Z,14.55
2023-04-13T18:01:34.367Z,14.19
2023-04-13T18:04:01.262Z,14.26
2023-04-13T18:06:27.960Z,14.40
2023-04-13T18:08:54.480Z,14.21
2023-04-13T18:11:21.181Z,14.30
2023-04-13T18:13:47.786Z,14.26
2023-04-13T18:16:14.783Z,14.28
2023-04-13T18:18:41.341Z,14.28
2023-04-13T18:21:08.218Z,14.32
2023-04-13T18:23:35.082Z,14.35
2023-04-13T18:26:01.895Z,14.13
2023-04-13T18:28:29.661Z,13.81
2023-04-13T18:31:02.778Z,13.88
2023-04-13T18:33:30.518Z,14.01
2023-04-13T18:35:57.334Z,14.13
2023-04-13T18:38:24.391Z,14.16
2023-04-13T18:40:51.050Z,14.13
2023-04-13T18:43:17.727Z,13.98
2023-04-13T18:45:45.174Z,14.06
2023-04-13T18:48:12.086Z,13.83
2023-04-13T18:50:38.925Z,13.79
2023-04-13T18:53:06.031Z,13.60
2023-04-13T18:55:32.798Z,13.83
2023-04-13T18:57:59.397Z,13.97
2023-04-13T19:00:25.977Z,14.03
2023-04-13T19:02:52.969Z,14.09
2023-04-13T19:05:20.186Z,14.18
2023-04-13T19:07:58.816Z,14.16
2023-04-13T19:10:27.755Z,14.06
2023-04-13T19:12:54.683Z,14.14
2023-04-13T19:15:22.015Z,14.15
2023-04-13T19:17:50.444Z,14.18
2023-04-13T19:20:17.195Z,14.15
2023-04-13T19:22:43.796Z,14.09
2023-04-13T19:25:14.657Z,14.01
2023-04-13T19:27:43.156Z,14.14
2023-04-13T19:30:10.874Z,14.16
2023-04-13T19:32:38.593Z,14.14
2023-04-13T19:35:06.259Z,14.02
2023-04-13T19:37:35.821Z,13.76
2023-04-13T19:40:05.291Z,13.81
2023-04-13T19:42:32.930Z,13.78
2023-04-13T19:45:00.736Z,13.67
2023-04-13T19:47:27.308Z,13.66
2023-04-13T19:49:53.870Z,13.39
2023-04-13T19:52:21.023Z,13.41
2023-04-13T19:54:47.607Z,13.26
2023-04-13T19:57:14.224Z,13.22
2023-04-13T19:59:42.476Z,13.03
2023-04-13T20:02:10.742Z,13.18
2023-04-13T20:04:37.879Z,13.21
2023-04-13T20:07:04.559Z,13.08
2023-04-13T20:09:31.171Z,13.19
2023-04-13T20:11:57.712Z,13.28
2023-04-13T20:14:24.360Z,13.18
2023-04-13T20:16:51.165Z,13.23
2023-04-13T20:19:17.738Z,12.97
2023-04-13T20:21:46.489Z,12.93
2023-04-13T20:24:13.064Z,13.23
2023-04-13T20:26:39.772Z,13.25
2023-04-13T20:29:06.731Z,13.16
2023-04-13T20:31:33.593Z,13.20
2023-04-13T20:34:00.765Z,13.32
2023-04-13T20:36:27.539Z,13.28
2023-04-13T20:38:59.159Z,13.09
2023-04-13T20:41:27.067Z,13.02
2023-04-13T20:43:53.827Z,13.07
2023-04-13T20:46:21.644Z,12.91
2023-04-13T20:48:51.332Z,12.78
2023-04-13T20:51:19.022Z,12.85
2023-04-13T20:53:45.585Z,13.06
2023-04-13T20:56:12.668Z,13.13
2023-04-13T20:58:39.272Z,13.06
2023-04-13T21:01:05.913Z,13.02
2023-04-13T21:03:32.918Z,12.92
2023-04-13T21:06:00.222Z,13.04
2023-04-13T21:08:27.377Z,13.04
2023-04-13T21:10:53.942Z,12.92
2023-04-13T21:13:21.747Z,12.95
2023-04-13T21:15:48.303Z,12.79
2023-04-13T21:18:14.824Z,12.64
2023-04-13T21:20:43.378Z,12.49
2023-04-13T21:23:10.256Z,12.48
2023-04-13T21:25:37.345Z,12.56
2023-04-13T21:28:04.025Z,12.67
2023-04-13T21:30:30.581Z,12.64
2023-04-13T21:32:57.207Z,12.35
2023-04-13T21:35:23.786Z,12.43
2023-04-13T21:37:50.325Z,12.28
2023-04-13T21:40:18.245Z,12.28
2023-04-13T21:42:45.028Z,12.20
2023-04-13T21:45:11.715Z,12.32
2023-04-13T21:47:38.405Z,12.37
2023-04-13T21:50:06.149Z,12.34
2023-04-13T21:52:32.732Z,12.49
2023-04-13T21:54:59.796Z,12.44
2023-04-13T21:57:26.827Z,12.51
2023-04-13T21:59:54.612Z,12.52
2023-04-13T22:02:21.370Z,12.64
2023-04-13T22:04:48.142Z,12.53
2023-04-13T22:07:14.766Z,12.13
2023-04-13T22:09:41.623Z,11.94
2023-04-13T22:12:10.670Z,11.96
2023-04-13T22:14:37.199Z,12.14
2023-04-13T22:17:03.754Z,12.31
2023-04-13T22:19:30.339Z,12.30
2023-04-13T22:21:56.861Z,12.27
2023-04-13T22:24:23.412Z,12.18
2023-04-13T22:26:50.002Z,12.25
2023-04-13T22:29:16.568Z,12.40
2023-04-13T22:31:43.442Z,12.26
2023-04-13T22:34:10.022Z,12.08
2023-04-13T22:36:36.540Z,12.05
2023-04-13T22:39:03.141Z,11.87
2023-04-13T22:41:29.759Z,12.06
2023-04-13T22:43:56.258Z,12.21
2023-04-13T22:46:23.806Z,12.24
2023-04-13T22:48:50.541Z,12.28
2023-04-13T22:51:17.137Z,12.09
2023-04-13T22:53:43.701Z,11.98
2023-04-13T22:56:10.392Z,12.02
2023-04-13T22:58:37.022Z,12.10
2023-04-13T23:01:04.573Z,12.03
2023-04-13T23:03:31.413Z,12.13
2023-04-13T23:05:58.166Z,12.08
2023-04-13T23:08:24.761Z,11.97
2023-04-13T23:10:51.658Z,12.08
2023-04-13T23:13:18.249Z,11.82
2023-04-13T23:15:45.084Z,11.81
2023-04-13T23:18:11.595Z,11.99
2023-04-13T23:20:38.129Z,12.00
2023-04-13T23:23:04.712Z,11.98
2023-04-13T23:25:31.280Z,11.95
2023-04-13T23:27:57.824Z,11.76
2023-04-13T23:30:24.396Z,11.89
2023-04-13T23:32:51.032Z,11.96
2023-04-13T23:35:17.595Z,12.09
2023-04-13T23:37:45.244Z,12.08
2023-04-13T23:40:12.143Z,11.97
2023-04-13T23:42:38.734Z,11.78
2023-04-13T23:45:06.018Z,11.72
2023-04-13T23:47:32.558Z,11.71
2023-04-13T23:49:59.158Z,11.83
2023-04-13T23:52:25.747Z,11.76
2023-04-13T23:54:52.546Z,11.74
2023-04-13T23:57:19.054Z,11.65
2023-04-13T23:59:45.815Z,11.47
